Time;durP1;ratioP1;P1;durP2;ratioP2;P2;SDS_P1;SDS_P2;PMS_P1;PMS_P2;Temp;Humidity;BMP_temperature;BMP_pressure;BME280_temperature;BME280_humidity;BME280_pressure;Samples;Min_cycle;Max_cycle;Signal;HPM_P1;HPM_P2
2023/05/24 00:01:15;;;;;;;6.32;1.90;;;8.40;99.90;;;;;;4976271;28;20042;-71
2023/05/24 00:03:45;;;;;;;5.88;1.85;;;8.40;99.90;;;;;;4978929;28;20081;-71
2023/05/24 00:06:11;;;;;;;6.07;2.20;;;8.50;99.90;;;;;;4990456;28;20381;-71
2023/05/24 00:08:36;;;;;;;6.55;2.30;;;8.50;99.90;;;;;;4993661;28;20060;-71
2023/05/24 00:11:02;;;;;;;5.32;2.28;;;8.50;99.90;;;;;;4976710;28;20168;-71
2023/05/24 00:13:28;;;;;;;7.35;2.45;;;8.50;99.90;;;;;;4992500;28;20038;-71
2023/05/24 00:15:53;;;;;;;11.20;3.13;;;8.60;99.90;;;;;;4993500;28;20474;-71
2023/05/24 00:18:19;;;;;;;9.13;2.83;;;8.60;99.90;;;;;;4993880;28;20049;-71
2023/05/24 00:20:45;;;;;;;8.45;2.92;;;8.70;99.90;;;;;;4992076;28;20057;-71
2023/05/24 00:23:10;;;;;;;4.47;2.15;;;8.50;99.90;;;;;;4987797;28;20383;-71
2023/05/24 00:25:36;;;;;;;5.47;1.70;;;8.50;99.90;;;;;;4974133;28;20054;-71
2023/05/24 00:28:02;;;;;;;5.15;1.80;;;8.50;99.90;;;;;;4975314;28;20053;-71
2023/05/24 00:30:27;;;;;;;2.50;1.10;;;8.40;99.90;;;;;;4982363;28;20125;-71
2023/05/24 00:32:53;;;;;;;9.18;1.85;;;8.40;99.90;;;;;;4994423;28;20085;-71
2023/05/24 00:35:19;;;;;;;7.75;2.10;;;8.40;99.90;;;;;;4983392;28;20512;-71
2023/05/24 00:37:45;;;;;;;4.30;1.63;;;8.30;99.90;;;;;;4977220;28;20057;-71
2023/05/24 00:40:12;;;;;;;5.18;1.70;;;8.30;99.90;;;;;;4994169;28;20054;-71
2023/05/24 00:42:37;;;;;;;5.55;1.80;;;8.30;99.90;;;;;;4993561;28;20049;-71
2023/05/24 00:45:05;;;;;;;7.03;1.88;;;8.30;99.90;;;;;;4974635;28;20045;-71
2023/05/24 00:47:32;;;;;;;2.90;1.27;;;8.30;99.90;;;;;;4993464;28;20071;-71
2023/05/24 00:49:57;;;;;;;8.60;1.90;;;8.20;99.90;;;;;;4994354;28;20050;-71
2023/05/24 00:52:23;;;;;;;4.38;1.80;;;8.20;99.90;;;;;;4985981;28;20105;-71
2023/05/24 00:54:49;;;;;;;6.18;1.90;;;8.20;99.90;;;;;;4970076;28;20085;-71
2023/05/24 00:57:17;;;;;;;4.57;1.63;;;8.10;99.90;;;;;;4992401;28;20053;-71
2023/05/24 00:59:44;;;;;;;4.68;1.80;;;8.20;99.90;;;;;;5010494;28;20041;-71
2023/05/24 01:02:10;;;;;;;6.13;2.13;;;8.20;99.90;;;;;;4986936;28;20049;-71
2023/05/24 01:04:36;;;;;;;6.53;2.17;;;8.30;99.90;;;;;;4988336;28;20038;-71
2023/05/24 01:07:26;;;;;;;11.98;2.97;;;8.30;99.90;;;;;;4992728;28;20136;-71
2023/05/24 01:09:57;;;;;;;8.85;2.67;;;8.40;99.90;;;;;;5010598;28;20485;-71
2023/05/24 01:12:29;;;;;;;10.73;2.97;;;8.40;99.90;;;;;;4993242;28;20125;-71
2023/05/24 01:15:27;;;;;;;5.32;2.05;;;8.50;99.90;;;;;;4991095;28;20037;-71
2023/05/24 01:18:06;;;;;;;9.85;2.42;;;8.50;99.90;;;;;;4975813;28;20702;-71
2023/05/24 01:20:36;;;;;;;8.13;2.40;;;8.50;99.90;;;;;;4993281;28;20045;-71
2023/05/24 01:23:20;;;;;;;7.20;2.42;;;8.60;99.90;;;;;;4991820;28;20386;-71
2023/05/24 01:26:11;;;;;;;9.68;2.80;;;8.60;99.90;;;;;;5001927;28;20503;-71
2023/05/24 01:28:38;;;;;;;15.27;3.50;;;8.60;99.90;;;;;;4982466;28;20129;-71
2023/05/24 01:31:05;;;;;;;16.33;3.65;;;8.70;99.90;;;;;;4990908;28;20449;-71
2023/05/24 01:33:31;;;;;;;10.85;2.92;;;8.70;99.90;;;;;;4992489;28;20046;-71
2023/05/24 01:35:57;;;;;;;14.40;3.03;;;8.70;99.90;;;;;;4988420;28;20037;-71
2023/05/24 01:38:23;;;;;;;13.45;3.30;;;8.70;99.90;;;;;;4993046;28;20050;-71
2023/05/24 01:40:56;;;;;;;10.38;3.10;;;8.70;99.90;;;;;;4976807;28;20046;-71
2023/05/24 01:43:24;;;;;;;11.13;3.03;;;8.70;99.90;;;;;;4985807;28;20417;-71
2023/05/24 01:46:32;;;;;;;13.30;2.90;;;8.60;99.90;;;;;;4992125;28;20172;-71
2023/05/24 01:49:19;;;;;;;8.60;3.07;;;8.60;99.90;;;;;;4965812;28;20145;-71
2023/05/24 01:52:02;;;;;;;9.27;2.50;;;8.60;99.90;;;;;;4979746;28;20340;-72
2023/05/24 01:54:32;;;;;;;6.47;2.47;;;8.60;99.90;;;;;;5008426;28;20142;-71
2023/05/24 01:56:58;;;;;;;9.30;2.65;;;8.60;99.90;;;;;;5002291;28;20038;-71
2023/05/24 01:59:27;;;;;;;5.25;1.95;;;8.60;99.90;;;;;;5006656;28;20068;-71
2023/05/24 02:01:53;;;;;;;7.85;2.22;;;8.50;99.90;;;;;;4987126;28;20053;-71
2023/05/24 02:04:19;;;;;;;8.68;2.25;;;8.50;99.90;;;;;;4985827;28;20081;-71
2023/05/24 02:06:45;;;;;;;9.82;2.55;;;8.50;99.90;;;;;;4981785;28;20082;-71
2023/05/24 02:09:10;;;;;;;9.38;2.40;;;8.50;99.90;;;;;;4977103;28;20057;-71
2023/05/24 02:11:36;;;;;;;7.85;2.20;;;8.50;99.90;;;;;;4991830;28;20042;-71
2023/05/24 02:14:02;;;;;;;7.90;2.38;;;8.60;99.90;;;;;;4992680;28;20038;-71
2023/05/24 02:16:29;;;;;;;6.72;2.03;;;8.60;99.90;;;;;;4958772;28;20050;-71
2023/05/24 02:18:56;;;;;;;7.15;2.03;;;8.60;99.90;;;;;;4991862;28;20073;-71
2023/05/24 02:21:22;;;;;;;5.45;1.60;;;8.70;99.90;;;;;;4978682;28;20082;-71
2023/05/24 02:23:47;;;;;;;;;;;8.70;99.90;;;;;;4960411;28;20510;-71
2023/05/24 02:26:13;;;;;;;7.68;2.15;;;8.80;99.90;;;;;;4992377;28;19980;-72
2023/05/24 02:28:39;;;;;;;10.90;2.55;;;8.90;99.90;;;;;;4990192;28;20075;-71
2023/05/24 02:31:05;;;;;;;7.40;2.58;;;8.90;99.90;;;;;;4989329;28;20092;-71
2023/05/24 02:33:32;;;;;;;8.00;2.58;;;9.00;99.90;;;;;;4992398;28;20042;-71
2023/05/24 02:36:00;;;;;;;11.55;2.72;;;9.00;99.90;;;;;;4961644;28;20145;-72
2023/05/24 02:38:25;;;;;;;9.65;2.80;;;9.10;99.90;;;;;;4984100;28;20084;-72
2023/05/24 02:40:51;;;;;;;6.07;2.13;;;9.20;99.90;;;;;;4957514;28;20078;-72
2023/05/24 02:43:17;;;;;;;11.60;2.55;;;9.20;99.90;;;;;;4985333;28;20124;-72
2023/05/24 02:45:43;;;;;;;10.88;2.60;;;9.20;99.90;;;;;;4981017;28;20053;-72
2023/05/24 02:48:08;;;;;;;8.75;2.58;;;9.30;99.90;;;;;;4959728;28;20056;-72
2023/05/24 02:50:35;;;;;;;11.07;2.92;;;9.20;99.90;;;;;;4988885;28;20056;-72
2023/05/24 02:53:01;;;;;;;8.65;2.30;;;9.30;99.90;;;;;;4983057;28;20049;-72
2023/05/24 02:55:28;;;;;;;9.18;3.03;;;9.30;99.90;;;;;;4970356;28;20050;-72
2023/05/24 02:57:54;;;;;;;;;;;9.40;99.90;;;;;;4971523;28;20042;-72
2023/05/24 03:00:20;;;;;;;10.23;3.00;;;9.40;99.90;;;;;;4992904;28;20373;-72
2023/05/24 03:02:49;;;;;;;12.50;3.28;;;9.50;99.70;;;;;;4969863;28;20038;-72
2023/05/24 03:05:16;;;;;;;6.93;2.28;;;9.50;70.60;;;;;;4987072;28;20129;-72
2023/05/24 03:07:42;;;;;;;12.07;2.60;;;9.60;13.50;;;;;;4987746;28;20402;-70
2023/05/24 03:10:08;;;;;;;12.27;2.50;;;9.60;1.00;;;;;;4986982;28;20052;-72
2023/05/24 03:12:33;;;;;;;11.10;2.75;;;9.60;1.00;;;;;;4991479;28;20034;-73
2023/05/24 03:14:59;;;;;;;13.80;3.45;;;9.60;1.00;;;;;;4991453;28;20121;-73
2023/05/24 03:17:25;;;;;;;12.55;3.60;;;9.60;1.00;;;;;;4991326;28;20100;-73
2023/05/24 03:19:51;;;;;;;8.63;2.58;;;9.60;1.00;;;;;;4989055;28;20046;-73
2023/05/24 03:22:17;;;;;;;;;;;9.60;1.00;;;;;;4981140;28;20413;-71
2023/05/24 03:24:45;;;;;;;10.82;2.53;;;9.60;1.00;;;;;;4990903;28;19933;-73
2023/05/24 03:27:11;;;;;;;14.13;3.20;;;9.60;1.00;;;;;;4991645;28;20067;-73
2023/05/24 03:29:36;;;;;;;8.68;2.40;;;9.60;1.00;;;;;;4974278;28;20116;-73
2023/05/24 03:32:02;;;;;;;8.82;2.25;;;9.70;1.00;;;;;;4994357;28;20112;-73
2023/05/24 03:34:29;;;;;;;15.23;3.42;;;9.70;1.00;;;;;;4992478;28;20068;-73
2023/05/24 03:36:54;;;;;;;;;;;9.70;1.00;;;;;;4996244;28;20049;-73
2023/05/24 03:39:20;;;;;;;7.43;2.40;;;9.70;1.00;;;;;;4994624;28;19921;-73
2023/05/24 03:41:46;;;;;;;17.55;3.25;;;9.70;1.00;;;;;;4995162;28;20049;-72
2023/05/24 03:44:12;;;;;;;9.45;3.08;;;9.70;99.90;;;;;;4987238;28;20037;-73
2023/05/24 03:46:37;;;;;;;11.32;3.03;;;9.80;99.90;;;;;;4993350;28;20049;-73
2023/05/24 03:49:03;;;;;;;13.45;3.05;;;9.80;99.90;;;;;;4988185;28;20057;-73
2023/05/24 03:51:29;;;;;;;10.98;2.55;;;9.80;99.90;;;;;;4995362;28;20049;-73
2023/05/24 03:53:56;;;;;;;14.05;3.10;;;9.80;99.90;;;;;;4989610;28;20125;-73
2023/05/24 03:56:22;;;;;;;16.25;3.63;;;9.80;99.90;;;;;;5003285;28;20038;-73
2023/05/24 03:58:48;;;;;;;11.50;2.60;;;9.90;99.90;;;;;;4994680;28;20038;-73
2023/05/24 04:01:14;;;;;;;8.95;2.47;;;9.90;99.90;;;;;;4994599;28;20477;-73
2023/05/24 04:03:40;;;;;;;13.90;3.33;;;9.90;99.90;;;;;;4989618;28;20041;-73
2023/05/24 04:06:06;;;;;;;9.75;3.10;;;9.90;99.90;;;;;;4968529;28;20046;-73
2023/05/24 04:08:31;;;;;;;12.30;3.20;;;9.90;99.90;;;;;;4985972;28;20124;-73
2023/05/24 04:10:57;;;;;;;13.27;3.00;;;10.00;99.90;;;;;;4988977;28;20053;-73
2023/05/24 04:13:23;;;;;;;12.73;3.42;;;10.00;99.90;;;;;;4993298;28;20065;-73
2023/05/24 04:15:48;;;;;;;14.07;3.50;;;10.00;99.90;;;;;;4974376;28;20046;-73
2023/05/24 04:18:14;;;;;;;12.02;2.97;;;10.10;99.90;;;;;;4987815;28;20073;-72
2023/05/24 04:20:40;;;;;;;12.40;3.35;;;10.10;99.90;;;;;;4986351;28;20164;-73
2023/05/24 04:23:05;;;;;;;10.25;2.80;;;10.10;99.90;;;;;;5005557;28;20054;-73
2023/05/24 04:25:32;;;;;;;8.52;2.50;;;10.10;99.90;;;;;;4983387;28;20125;-73
2023/05/24 04:27:59;;;;;;;8.98;2.50;;;10.20;99.90;;;;;;4992261;28;20092;-73
2023/05/24 04:30:25;;;;;;;9.73;3.00;;;10.20;99.90;;;;;;5000914;28;20080;-73
2023/05/24 04:32:50;;;;;;;9.32;2.60;;;10.20;99.90;;;;;;5005836;28;20378;-73
2023/05/24 04:35:17;;;;;;;16.05;3.00;;;10.20;99.90;;;;;;4990742;28;20042;-73
2023/05/24 04:37:43;;;;;;;13.60;3.42;;;10.20;99.90;;;;;;4993735;28;20050;-73
2023/05/24 04:40:09;;;;;;;12.10;2.75;;;10.20;99.90;;;;;;4973604;28;20049;-73
2023/05/24 04:42:35;;;;;;;;;;;10.30;99.90;;;;;;4994373;28;20433;-73
2023/05/24 04:45:01;;;;;;;11.43;2.80;;;10.30;99.90;;;;;;4975952;28;19971;-73
2023/05/24 04:47:27;;;;;;;12.63;3.00;;;10.30;99.90;;;;;;4977814;28;20091;-73
2023/05/24 04:49:52;;;;;;;9.20;2.85;;;10.30;99.90;;;;;;4961219;28;20050;-73
2023/05/24 04:52:18;;;;;;;9.52;3.00;;;10.30;99.90;;;;;;4991173;28;20508;-73
2023/05/24 04:54:44;;;;;;;11.48;2.80;;;10.20;99.90;;;;;;4999250;28;20130;-73
2023/05/24 04:57:09;;;;;;;10.32;3.28;;;10.30;99.90;;;;;;4976938;28;20049;-73
2023/05/24 04:59:35;;;;;;;11.95;3.30;;;10.20;99.90;;;;;;4985829;28;20034;-73
2023/05/24 05:02:01;;;;;;;12.13;3.05;;;10.20;99.90;;;;;;5008444;28;20061;-73
2023/05/24 05:04:27;;;;;;;11.13;2.75;;;10.20;99.90;;;;;;4992872;28;20046;-73
2023/05/24 05:06:52;;;;;;;14.70;3.45;;;10.20;99.90;;;;;;4993623;28;20556;-73
2023/05/24 05:09:18;;;;;;;9.75;3.10;;;10.20;99.90;;;;;;4993244;28;20525;-73
2023/05/24 05:11:45;;;;;;;13.23;3.35;;;10.10;99.90;;;;;;4990165;28;20113;-73
2023/05/24 05:14:11;;;;;;;9.40;2.90;;;10.10;99.90;;;;;;4982924;28;20116;-73
2023/05/24 05:16:37;;;;;;;8.93;2.53;;;10.10;99.90;;;;;;4993025;28;20065;-73
2023/05/24 05:19:04;;;;;;;13.77;3.30;;;10.10;99.90;;;;;;4968850;28;20038;-72
2023/05/24 05:21:33;;;;;;;15.32;3.45;;;10.10;99.90;;;;;;4988217;28;20096;-72
2023/05/24 05:23:59;;;;;;;8.45;2.70;;;10.10;99.90;;;;;;4986081;28;20230;-72
2023/05/24 05:26:28;;;;;;;11.35;3.00;;;10.20;99.90;;;;;;4984654;28;20038;-71
2023/05/24 05:28:55;;;;;;;14.45;3.22;;;10.30;99.90;;;;;;4985324;28;20041;-71
2023/05/24 05:31:21;;;;;;;16.52;3.47;;;10.30;99.90;;;;;;4993653;28;20038;-72
2023/05/24 05:33:47;;;;;;;9.57;2.53;;;10.30;99.90;;;;;;4978541;28;20449;-72
2023/05/24 05:36:13;;;;;;;9.88;2.80;;;10.40;99.90;;;;;;4986956;28;20415;-72
2023/05/24 05:38:39;;;;;;;12.75;2.67;;;10.60;99.90;;;;;;4971874;28;20033;-72
2023/05/24 05:41:06;;;;;;;15.68;3.55;;;10.60;99.90;;;;;;4974105;28;20046;-72
2023/05/24 05:43:31;;;;;;;7.60;2.55;;;10.60;99.90;;;;;;4986922;28;20042;-73
2023/05/24 05:45:59;;;;;;;9.45;2.92;;;10.60;99.90;;;;;;5007171;28;20068;-73
2023/05/24 05:48:25;;;;;;;10.93;2.97;;;10.70;99.90;;;;;;4985130;28;20046;-73
2023/05/24 05:50:50;;;;;;;16.20;3.58;;;10.70;99.90;;;;;;4990298;28;20046;-72
2023/05/24 05:53:16;;;;;;;12.05;3.75;;;10.70;99.90;;;;;;4986386;28;20050;-73
2023/05/24 05:55:42;;;;;;;14.07;4.22;;;10.80;99.90;;;;;;4986421;28;20772;-73
2023/05/24 05:58:08;;;;;;;10.60;3.10;;;10.90;99.90;;;;;;4974150;28;20124;-72
2023/05/24 06:00:33;;;;;;;10.77;3.28;;;11.00;99.90;;;;;;4985943;28;20053;-72
2023/05/24 06:02:59;;;;;;;11.85;3.30;;;11.00;99.90;;;;;;4986855;28;20477;-72
2023/05/24 06:05:24;;;;;;;13.52;3.13;;;11.10;99.90;;;;;;4985764;28;20508;-71
2023/05/24 06:07:50;;;;;;;11.82;3.13;;;11.30;88.10;;;;;;4983524;28;20433;-72
2023/05/24 06:10:16;;;;;;;13.40;3.42;;;11.30;1.00;;;;;;4988783;28;20084;-72
2023/05/24 06:12:42;;;;;;;11.02;2.90;;;11.50;99.90;;;;;;5007040;28;20034;-72
2023/05/24 06:15:08;;;;;;;11.52;3.10;;;11.60;99.90;;;;;;4988826;28;20428;-72
2023/05/24 06:17:34;;;;;;;;;;;11.60;1.00;;;;;;4991687;28;20504;-72
2023/05/24 06:20:00;;;;;;;11.05;2.92;;;11.70;99.90;;;;;;4991943;28;19924;-72
2023/05/24 06:22:29;;;;;;;8.68;2.67;;;11.80;99.90;;;;;;4992670;28;20041;-72
2023/05/24 06:24:55;;;;;;;12.77;3.00;;;11.70;99.90;;;;;;4988928;28;20134;-72
2023/05/24 06:27:20;;;;;;;8.70;2.78;;;11.80;25.50;;;;;;4990965;28;20081;-72
2023/05/24 06:29:46;;;;;;;10.57;2.92;;;11.80;28.60;;;;;;4982680;28;20089;-72
2023/05/24 06:32:12;;;;;;;9.93;2.83;;;11.80;1.00;;;;;;4992542;28;20057;-72
2023/05/24 06:34:37;;;;;;;7.10;2.38;;;11.90;1.00;;;;;;4991198;28;20045;-72
2023/05/24 06:37:03;;;;;;;10.10;2.83;;;12.00;20.90;;;;;;4988550;28;20047;-72
2023/05/24 06:39:29;;;;;;;9.00;2.72;;;12.10;99.90;;;;;;4982496;28;20367;-72
2023/05/24 06:41:55;;;;;;;7.97;2.33;;;12.10;99.90;;;;;;4992244;28;20129;-72
2023/05/24 06:44:22;;;;;;;8.13;2.72;;;12.20;99.90;;;;;;5007534;28;20042;-72
2023/05/24 06:46:48;;;;;;;5.45;1.98;;;12.10;85.70;;;;;;4982479;28;20094;-72
2023/05/24 06:49:13;;;;;;;10.55;2.75;;;12.20;99.90;;;;;;4984901;28;20084;-71
2023/05/24 06:51:39;;;;;;;6.40;2.60;;;12.20;99.90;;;;;;4989017;28;20042;-71
2023/05/24 06:54:05;;;;;;;9.35;2.53;;;12.20;99.90;;;;;;4989938;28;20134;-71
2023/05/24 06:56:31;;;;;;;8.15;2.63;;;12.10;99.90;;;;;;4983541;28;20042;-72
2023/05/24 06:58:58;;;;;;;;;;;12.20;99.90;;;;;;4987159;28;20038;-72
2023/05/24 07:01:24;;;;;;;12.55;2.72;;;12.20;99.90;;;;;;4983487;28;19917;-72
2023/05/24 07:03:49;;;;;;;10.90;3.17;;;12.20;99.90;;;;;;4991523;28;20040;-72
2023/05/24 07:06:16;;;;;;;9.82;2.60;;;12.20;99.90;;;;;;4970459;28;20045;-72
2023/05/24 07:08:41;;;;;;;12.70;2.83;;;12.20;99.90;;;;;;4996104;28;20049;-72
2023/05/24 07:11:08;;;;;;;9.77;2.70;;;12.20;1.00;;;;;;4953273;28;20603;-72
2023/05/24 07:13:34;;;;;;;11.00;2.70;;;12.20;91.40;;;;;;4978099;28;20473;-72
2023/05/24 07:15:59;;;;;;;8.70;2.40;;;12.20;10.00;;;;;;4988241;28;20097;-72
2023/05/24 07:18:25;;;;;;;13.85;3.78;;;12.30;99.90;;;;;;4996377;28;20038;-72
2023/05/24 07:20:51;;;;;;;10.13;3.17;;;12.40;32.00;;;;;;4989524;28;20077;-72
2023/05/24 07:23:16;;;;;;;12.00;3.35;;;12.40;1.00;;;;;;4976416;28;20129;-72
2023/05/24 07:25:42;;;;;;;10.70;3.03;;;12.40;1.00;;;;;;4977410;28;20046;-72
2023/05/24 07:28:09;;;;;;;7.07;2.40;;;12.50;1.00;;;;;;4992507;28;20053;-72
2023/05/24 07:30:37;;;;;;;9.05;2.35;;;12.80;1.00;;;;;;4963662;28;20041;-71
2023/05/24 07:33:03;;;;;;;8.25;3.00;;;13.00;99.90;;;;;;4995662;28;20054;-72
2023/05/24 07:35:29;;;;;;;11.63;2.83;;;12.90;99.90;;;;;;4993242;28;20057;-72
2023/05/24 07:37:55;;;;;;;11.88;2.97;;;12.70;72.40;;;;;;4976484;28;20042;-72
2023/05/24 07:40:22;;;;;;;9.18;2.78;;;12.50;99.90;;;;;;4976669;28;20489;-72
2023/05/24 07:42:48;;;;;;;12.77;3.35;;;12.70;99.90;;;;;;5013398;28;20488;-73
2023/05/24 07:45:14;;;;;;;9.88;2.90;;;13.00;99.90;;;;;;4995302;28;20042;-72
2023/05/24 07:47:40;;;;;;;10.07;3.00;;;13.30;99.90;;;;;;4976732;28;20046;-72
2023/05/24 07:50:06;;;;;;;8.10;2.53;;;13.50;10.60;;;;;;4981708;28;20034;-73
2023/05/24 07:52:32;;;;;;;7.05;2.80;;;13.50;99.90;;;;;;4986564;28;20133;-72
2023/05/24 07:54:57;;;;;;;9.43;3.17;;;13.20;99.90;;;;;;4976379;28;20107;-72
2023/05/24 07:57:23;;;;;;;6.88;2.40;;;13.20;99.90;;;;;;5011680;28;20189;-72
2023/05/24 07:59:49;;;;;;;8.95;2.30;;;13.30;1.00;;;;;;4994586;28;20079;-73
2023/05/24 08:02:15;;;;;;;9.25;3.10;;;13.20;99.90;;;;;;4994920;28;20119;-72
2023/05/24 08:04:42;;;;;;;7.85;3.05;;;13.00;1.00;;;;;;4995149;28;20057;-73
2023/05/24 08:07:08;;;;;;;8.00;2.17;;;13.00;99.90;;;;;;4992711;28;20071;-72
2023/05/24 08:09:35;;;;;;;;;;;12.90;99.90;;;;;;5011517;28;20057;-72
2023/05/24 08:12:05;;;;;;;6.50;2.30;;;12.90;99.90;;;;;;4967982;28;19926;-73
2023/05/24 08:14:31;;;;;;;3.53;1.70;;;12.90;1.00;;;;;;4994880;28;20042;-72
2023/05/24 08:16:59;;;;;;;7.00;1.85;;;13.10;99.90;;;;;;4991434;28;20040;-72
2023/05/24 08:19:26;;;;;;;5.30;1.83;;;13.10;1.00;;;;;;4991126;28;20048;-72
2023/05/24 08:21:53;;;;;;;4.70;1.90;;;13.20;99.90;;;;;;4989691;28;20046;-72
2023/05/24 08:24:19;;;;;;;4.05;1.50;;;13.40;1.00;;;;;;4993991;28;20054;-72
2023/05/24 08:26:45;;;;;;;6.57;2.28;;;13.70;99.90;;;;;;4986420;28;20073;-72
2023/05/24 08:29:11;;;;;;;5.00;1.90;;;13.90;99.90;;;;;;4971284;28;20829;-72
2023/05/24 08:31:37;;;;;;;3.53;1.58;;;14.20;99.90;;;;;;4981386;28;20053;-72
2023/05/24 08:34:03;;;;;;;5.20;1.73;;;14.50;99.90;;;;;;4992575;28;20054;-72
2023/05/24 08:36:29;;;;;;;5.20;2.03;;;14.50;99.90;;;;;;4977132;28;20113;-72
2023/05/24 08:38:55;;;;;;;4.82;2.08;;;14.70;99.90;;;;;;4994707;28;20046;-72
2023/05/24 08:41:21;;;;;;;5.43;1.73;;;14.90;99.90;;;;;;4977294;28;20048;-72
2023/05/24 08:43:47;;;;;;;6.47;2.22;;;14.80;44.50;;;;;;4994380;28;20068;-72
2023/05/24 08:46:15;;;;;;;5.75;2.03;;;15.10;99.90;;;;;;4966092;28;20046;-72
2023/05/24 08:48:46;;;;;;;5.95;2.00;;;14.80;99.90;;;;;;4986011;28;20042;-72
2023/05/24 08:51:14;;;;;;;6.22;2.05;;;14.60;99.90;;;;;;4993311;28;20188;-72
2023/05/24 08:53:47;;;;;;;6.03;1.95;;;14.30;99.90;;;;;;4978666;28;20039;-72
2023/05/24 08:56:16;;;;;;;5.68;1.95;;;14.10;99.90;;;;;;4981715;28;20064;-72
2023/05/24 08:58:42;;;;;;;4.68;1.70;;;14.50;99.90;;;;;;4985549;28;20038;-72
2023/05/24 09:01:10;;;;;;;5.63;2.17;;;14.80;99.90;;;;;;4985616;28;20054;-72
2023/05/24 09:03:36;;;;;;;5.80;1.92;;;14.80;99.90;;;;;;5006287;28;20041;-71
2023/05/24 09:06:03;;;;;;;7.68;2.25;;;14.70;99.90;;;;;;4992620;28;21114;-72
2023/05/24 09:08:32;;;;;;;8.70;2.40;;;14.50;95.50;;;;;;4993254;28;20049;-73
2023/05/24 09:10:59;;;;;;;5.70;2.00;;;14.00;99.90;;;;;;4992189;28;20556;-72
2023/05/24 09:13:26;;;;;;;6.55;2.13;;;14.10;99.90;;;;;;4984889;28;20367;-72
2023/05/24 09:15:52;;;;;;;6.28;2.10;;;13.90;99.90;;;;;;4980163;28;20394;-72
2023/05/24 09:18:18;;;;;;;8.23;2.20;;;14.00;99.90;;;;;;4985945;28;20056;-74
2023/05/24 09:20:43;;;;;;;8.00;2.60;;;14.00;99.90;;;;;;5004429;28;20397;-73
2023/05/24 09:23:11;;;;;;;5.30;2.05;;;13.90;99.90;;;;;;4976056;28;20046;-73
2023/05/24 09:25:43;;;;;;;6.72;2.28;;;13.80;99.90;;;;;;4988290;28;20042;-73
2023/05/24 09:28:12;;;;;;;5.88;2.25;;;13.90;99.90;;;;;;4972566;28;20111;-73
2023/05/24 09:30:37;;;;;;;8.55;2.50;;;13.80;99.90;;;;;;4965383;28;20129;-73
2023/05/24 09:33:07;;;;;;;6.78;2.00;;;13.80;99.90;;;;;;4968241;28;20156;-72
2023/05/24 09:35:33;;;;;;;8.68;2.75;;;13.80;99.90;;;;;;5002617;28;20042;-72
2023/05/24 09:37:59;;;;;;;;;;;13.80;99.90;;;;;;4977784;28;20559;-73
2023/05/24 09:40:25;;;;;;;5.50;2.15;;;13.70;99.90;;;;;;4977785;28;19922;-72
2023/05/24 09:43:08;;;;;;;5.72;2.10;;;13.60;99.90;;;;;;4985268;28;20061;-73
2023/05/24 09:45:54;;;;;;;5.68;2.00;;;13.70;99.90;;;;;;4984963;28;20402;-73
2023/05/24 09:48:20;;;;;;;7.15;2.17;;;13.70;99.90;;;;;;4991819;28;20486;-73
2023/05/24 09:51:06;;;;;;;;;;;13.90;99.90;;;;;;4987824;28;20042;-73
2023/05/24 09:53:35;;;;;;;7.43;2.17;;;14.00;99.90;;;;;;4989707;28;19917;-73
2023/05/24 09:56:08;;;;;;;8.75;2.28;;;14.40;99.90;;;;;;4978631;28;20038;-73
2023/05/24 09:58:35;;;;;;;4.80;2.03;;;14.30;99.90;;;;;;4988084;28;20046;-73
2023/05/24 10:01:06;;;;;;;5.22;1.90;;;14.30;99.90;;;;;;4980692;28;20405;-73
2023/05/24 10:03:32;;;;;;;5.43;1.85;;;14.50;1.00;;;;;;4990789;28;20104;-73
2023/05/24 10:05:58;;;;;;;5.68;2.35;;;15.10;99.90;;;;;;4966103;28;20053;-73
2023/05/24 10:08:25;;;;;;;;;;;15.30;99.90;;;;;;4988887;28;20037;-73
2023/05/24 10:10:51;;;;;;;7.32;2.10;;;15.30;99.90;;;;;;4998796;28;19931;-74
2023/05/24 10:13:17;;;;;;;6.00;2.30;;;15.20;99.90;;;;;;4990710;28;20084;-74
2023/05/24 10:15:43;;;;;;;;;;;14.80;99.90;;;;;;4993446;28;20112;-74
2023/05/24 10:18:09;;;;;;;7.25;2.30;;;14.40;99.90;;;;;;4992587;28;19960;-73
2023/05/24 10:20:35;;;;;;;4.95;2.15;;;14.30;99.90;;;;;;4976239;28;20069;-73
2023/05/24 10:23:06;;;;;;;8.88;2.50;;;14.00;99.90;;;;;;4992497;28;20049;-73
2023/05/24 10:25:34;;;;;;;9.23;2.90;;;13.80;1.00;;;;;;4992395;28;20072;-73
2023/05/24 10:28:05;;;;;;;9.23;2.60;;;13.60;1.00;;;;;;4991979;28;20052;-73
2023/05/24 10:30:44;;;;;;;7.75;2.53;;;13.50;99.90;;;;;;4992456;28;20049;-73
2023/05/24 10:33:13;;;;;;;5.60;2.58;;;13.40;99.90;;;;;;4991083;28;20129;-73
2023/05/24 10:35:39;;;;;;;6.82;2.53;;;13.40;99.90;;;;;;5001993;28;20046;-72
2023/05/24 10:38:06;;;;;;;6.97;2.33;;;13.40;99.90;;;;;;4990993;28;20044;-72
2023/05/24 10:40:32;;;;;;;6.05;2.08;;;13.40;99.90;;;;;;4995644;28;20054;-73
2023/05/24 10:42:58;;;;;;;10.00;2.83;;;13.40;1.00;;;;;;4996371;28;20042;-72
2023/05/24 10:45:24;;;;;;;10.15;2.63;;;13.50;76.80;;;;;;4981881;28;20042;-73
2023/05/24 10:47:50;;;;;;;5.70;2.13;;;13.50;1.00;;;;;;4978005;28;20495;-72
2023/05/24 10:50:20;;;;;;;;;;;13.70;99.90;;;;;;5011929;28;20036;-73
2023/05/24 10:52:48;;;;;;;13.13;3.03;;;13.60;99.90;;;;;;4984060;28;19922;-73
2023/05/24 10:55:14;;;;;;;11.00;3.20;;;13.70;99.90;;;;;;4996281;28;20045;-72
2023/05/24 10:57:40;;;;;;;11.20;3.03;;;14.00;99.90;;;;;;4995072;28;20599;-73
2023/05/24 11:00:24;;;;;;;;;;;14.30;99.90;;;;;;5004466;28;20228;-72
2023/05/24 11:03:01;;;;;;;7.97;2.75;;;14.80;12.90;;;;;;5009714;28;19921;-73
2023/05/24 11:05:53;;;;;;;7.03;2.40;;;15.30;99.90;;;;;;4982160;28;20132;-73
2023/05/24 11:08:36;;;;;;;8.02;2.78;;;16.10;99.90;;;;;;4976465;28;20469;-73
2023/05/24 11:11:03;;;;;;;6.70;2.63;;;16.00;95.00;;;;;;4996055;28;20167;-73
2023/05/24 11:13:29;;;;;;;7.07;2.63;;;15.70;93.60;;;;;;4979696;28;20076;-73
2023/05/24 11:15:55;;;;;;;8.75;2.80;;;15.40;99.90;;;;;;4979902;28;20485;-74
2023/05/24 11:18:22;;;;;;;9.70;2.35;;;14.90;95.10;;;;;;5003693;28;20051;-72
2023/05/24 11:20:49;;;;;;;8.70;2.58;;;14.50;99.90;;;;;;4990898;28;20553;-73
2023/05/24 11:23:15;;;;;;;6.43;2.38;;;14.30;99.90;;;;;;4994383;28;20374;-72
2023/05/24 11:25:42;;;;;;;6.78;1.77;;;14.30;99.90;;;;;;4978813;28;20092;-72
2023/05/24 11:28:11;;;;;;;5.50;2.05;;;14.20;99.90;;;;;;4992277;28;20049;-73
2023/05/24 11:30:45;;;;;;;7.63;2.88;;;14.30;99.90;;;;;;4988733;28;20460;-72
2023/05/24 11:33:22;;;;;;;6.97;2.55;;;14.30;99.90;;;;;;4968059;28;20054;-72
2023/05/24 11:35:53;;;;;;;5.55;2.03;;;14.40;99.90;;;;;;4983797;28;20561;-73
2023/05/24 11:38:20;;;;;;;7.85;2.40;;;14.90;99.90;;;;;;4993842;28;20049;-72
2023/05/24 11:40:48;;;;;;;6.22;2.30;;;14.70;99.90;;;;;;4995188;28;20042;-73
2023/05/24 11:43:18;;;;;;;7.47;2.20;;;14.70;99.90;;;;;;4979099;28;20535;-72
2023/05/24 11:45:47;;;;;;;7.35;2.53;;;14.40;99.90;;;;;;4995402;28;20041;-73
2023/05/24 11:48:14;;;;;;;8.35;2.83;;;14.30;99.90;;;;;;4995444;28;20473;-73
2023/05/24 11:50:41;;;;;;;7.82;2.47;;;14.30;99.90;;;;;;4994613;28;20446;-73
2023/05/24 11:53:11;;;;;;;7.22;2.38;;;14.30;99.90;;;;;;4966072;28;20454;-72
2023/05/24 11:55:41;;;;;;;7.95;2.10;;;14.40;99.90;;;;;;4995149;28;20034;-73
2023/05/24 11:58:19;;;;;;;5.75;1.85;;;14.60;99.90;;;;;;4995112;28;20497;-73
2023/05/24 12:00:46;;;;;;;6.35;2.28;;;14.80;99.90;;;;;;4991716;28;20048;-72
2023/05/24 12:03:12;;;;;;;5.38;2.08;;;14.80;99.90;;;;;;4978853;28;20096;-72
2023/05/24 12:05:38;;;;;;;4.53;1.90;;;14.80;99.90;;;;;;4995218;28;20041;-72
2023/05/24 12:08:09;;;;;;;5.40;1.90;;;14.70;99.90;;;;;;4993946;28;20070;-72
2023/05/24 12:10:36;;;;;;;6.88;2.35;;;14.60;99.90;;;;;;4977533;28;20038;-72
2023/05/24 12:13:03;;;;;;;9.27;2.30;;;14.50;99.90;;;;;;4993969;28;20541;-72
2023/05/24 12:15:29;;;;;;;4.57;1.65;;;14.50;99.90;;;;;;4978599;28;20045;-72
2023/05/24 12:17:56;;;;;;;6.60;2.58;;;14.50;99.90;;;;;;4994231;28;20096;-72
2023/05/24 12:20:22;;;;;;;7.85;2.38;;;14.50;99.90;;;;;;5013413;28;20065;-72
2023/05/24 12:22:50;;;;;;;6.80;2.25;;;14.50;99.90;;;;;;4987335;28;20137;-73
2023/05/24 12:25:20;;;;;;;4.18;2.15;;;14.50;99.90;;;;;;4977773;28;20049;-72
2023/05/24 12:27:55;;;;;;;5.03;2.13;;;14.50;99.90;;;;;;4983044;28;20133;-72
2023/05/24 12:30:22;;;;;;;5.40;1.88;;;14.60;99.90;;;;;;4966688;28;20096;-72
2023/05/24 12:32:49;;;;;;;4.90;1.90;;;14.90;99.90;;;;;;4987206;28;20576;-73
2023/05/24 12:35:19;;;;;;;9.88;2.55;;;15.00;99.90;;;;;;4994438;28;20080;-73
2023/05/24 12:37:45;;;;;;;6.15;1.98;;;14.80;99.90;;;;;;4970882;28;20074;-72
2023/05/24 12:40:22;;;;;;;7.00;2.28;;;14.60;99.90;;;;;;4984728;28;20093;-72
2023/05/24 12:42:58;;;;;;;6.13;2.20;;;14.40;99.90;;;;;;4986099;28;20485;-72
2023/05/24 12:45:27;;;;;;;6.68;2.10;;;14.50;99.90;;;;;;4987219;28;20107;-73
2023/05/24 12:47:54;;;;;;;6.65;2.03;;;14.70;99.90;;;;;;5005135;28;20056;-72
2023/05/24 12:50:24;;;;;;;5.43;2.17;;;14.80;99.90;;;;;;5001331;28;20033;-72
2023/05/24 12:52:52;;;;;;;7.03;2.28;;;14.80;99.90;;;;;;5011743;28;20089;-72
2023/05/24 12:55:25;;;;;;;9.50;2.90;;;15.00;99.90;;;;;;4994305;28;20037;-73